Time;durP1;ratioP1;P1;durP2;ratioP2;P2;SDS_P1;SDS_P2;PMS_P1;PMS_P2;Temp;Humidity;BMP_temperature;BMP_pressure;BME280_temperature;BME280_humidity;BME280_pressure;Samples;Min_cycle;Max_cycle;Signal;HPM_P1;HPM_P2
2021/12/25 00:03:15;;;;;;;35.50;25.67;;;13.50;62.70;;;;;;5270443;23;20050;-87
2021/12/25 00:05:53;;;;;;;47.90;29.92;;;13.30;63.00;;;;;;4974269;28;20042;-89
2021/12/25 00:26:49;;;;;;;39.00;21.45;;;12.70;63.90;;;;;;6010593;23;20026;-89
2021/12/25 01:53:56;;;;;;;7.50;5.05;;;12.80;66.70;;;;;;5161499;23;20069;-88
2021/12/25 02:40:47;;;;;;;10.13;6.13;;;13.50;63.80;;;;;;5291601;23;20660;-94
2021/12/25 02:46:55;;;;;;;9.90;6.13;;;13.60;63.50;;;;;;5344820;23;20069;-90
2021/12/25 02:56:20;;;;;;;9.13;5.80;;;13.20;64.00;;;;;;4952172;29;20081;-93
2021/12/25 03:00:00;;;;;;;9.55;6.57;;;13.40;63.40;;;;;;4938352;29;20531;-94
2021/12/25 03:03:27;;;;;;;11.05;6.07;;;13.50;63.10;;;;;;5095779;23;20042;-91
2021/12/25 03:09:47;;;;;;;9.68;5.80;;;13.60;63.10;;;;;;5069629;23;20062;-92
2021/12/25 03:12:29;;;;;;;9.98;6.13;;;13.40;63.60;;;;;;4976185;28;20475;-89
2021/12/25 04:15:15;;;;;;;11.10;7.28;;;12.90;61.00;;;;;;4195253;23;21297;-90
2021/12/25 05:11:10;;;;;;;16.77;10.27;;;12.70;60.30;;;;;;5000585;28;20177;-94
2021/12/25 06:44:43;;;;;;;70.30;32.10;;;11.90;62.40;;;;;;5154622;23;20020;31
2021/12/25 06:51:13;;;;;;;;;;;;;;;;;;;;;
2021/12/25 07:05:03;;;;;;;99.53;45.55;;;12.20;60.90;;;;;;5544534;23;20071;-91
2021/12/25 07:11:11;;;;;;;;;;;12.20;61.50;;;;;;4858829;29;20041;-91
2021/12/25 09:31:01;;;;;;;;;;;;;;;;;;;;;
2021/12/25 09:37:12;;;;;;;47.33;31.60;;;14.00;61.10;;;;;;5844418;23;20116;-93
2021/12/25 09:52:57;;;;;;;30.52;20.55;;;15.90;57.90;;;;;;5354326;23;20070;-92
2021/12/25 10:23:48;;;;;;;32.35;22.10;;;14.80;60.00;;;;;;1018740;23;22306;-93
2021/12/25 10:41:58;;;;;;;31.42;20.73;;;15.40;57.90;;;;;;5816236;23;20113;-93
2021/12/25 10:45:02;;;;;;;;;;;;;;;;;;;;;
2021/12/25 10:50:54;;;;;;;38.90;25.20;;;14.80;59.40;;;;;;4882435;29;20036;-93
2021/12/25 10:53:56;;;;;;;37.75;26.88;;;12.90;64.00;;;;;;5091590;23;20421;-92
2021/12/25 10:56:45;;;;;;;38.30;25.58;;;12.90;65.30;;;;;;4957267;28;20039;-95
2021/12/25 11:02:48;;;;;;;35.17;24.02;;;13.50;63.30;;;;;;5370295;23;20090;-91
2021/12/25 11:05:43;;;;;;;36.92;24.10;;;13.70;63.20;;;;;;4932563;29;20047;-93
2021/12/25 12:07:18;;;;;;;;;;;15.20;60.10;;;;;;5315259;23;20352;-93
2021/12/25 14:11:41;;;;;;;31.40;21.92;;;15.20;60.60;;;;;;3518903;23;20520;-85
2021/12/25 15:24:55;;;;;;;48.47;27.13;;;9.80;70.30;;;;;;4823208;29;20064;-87
2021/12/25 16:16:27;;;;;;;39.30;22.42;;;10.00;66.20;;;;;;5552549;23;20404;-93
2021/12/25 16:19:29;;;;;;;35.78;19.65;;;9.70;66.10;;;;;;4932617;29;20063;-90
2021/12/25 16:28:30;;;;;;;39.88;22.13;;;9.20;68.60;;;;;;4914376;29;20100;-92
2021/12/25 16:34:49;;;;;;;41.83;22.55;;;8.70;69.60;;;;;;4859654;29;20032;-89
2021/12/25 16:41:17;;;;;;;39.17;22.48;;;8.60;70.80;;;;;;4860229;29;20045;-89
2021/12/25 16:44:32;;;;;;;;;;;;;;;;;;;;;
2021/12/25 16:47:58;;;;;;;38.13;21.60;;;9.20;69.10;;;;;;4859733;29;20050;-92
2021/12/25 16:50:34;;;;;;;38.53;22.50;;;9.30;68.80;;;;;;4861572;29;20061;-93
2021/12/25 16:53:18;;;;;;;43.63;22.73;;;8.40;71.20;;;;;;4859955;29;20034;-88
2021/12/25 20:49:17;;;;;;;;;;;;;;;;;;;;;
2021/12/25 21:47:13;;;;;;;13.32;8.32;;;9.20;61.50;;;;;;4996655;23;20058;-83
2021/12/25 21:49:39;;;;;;;14.80;9.18;;;9.40;61.10;;;;;;4959255;28;20034;-81
2021/12/25 21:52:05;;;;;;;16.55;11.07;;;9.30;60.90;;;;;;4958816;28;20066;-81
2021/12/25 21:54:31;;;;;;;16.10;11.20;;;9.30;61.50;;;;;;4974896;28;20053;-80
2021/12/25 21:56:58;;;;;;;15.40;9.88;;;9.40;61.60;;;;;;4967611;28;20105;-82
2021/12/25 21:59:24;;;;;;;19.35;12.85;;;9.50;60.80;;;;;;4975704;28;20043;-83
2021/12/25 22:01:50;;;;;;;16.25;10.32;;;9.30;61.10;;;;;;4958381;28;20413;-81
2021/12/25 22:04:25;;;;;;;15.82;8.80;;;8.80;61.40;;;;;;4958914;28;20114;-83
2021/12/25 22:06:51;;;;;;;12.25;7.63;;;8.40;62.80;;;;;;4957509;28;20464;-83
2021/12/25 22:09:17;;;;;;;11.20;7.18;;;8.60;62.90;;;;;;4975491;28;20038;-82
2021/12/25 22:11:44;;;;;;;13.20;8.35;;;8.50;63.10;;;;;;4959031;28;20052;-82
2021/12/25 22:14:10;;;;;;;14.20;8.95;;;8.20;63.60;;;;;;4959068;28;20384;-82
2021/12/25 22:16:35;;;;;;;14.23;8.43;;;8.10;64.10;;;;;;4975119;28;20472;-82
2021/12/25 22:19:02;;;;;;;13.88;8.68;;;8.10;64.10;;;;;;4976044;28;20043;-83
2021/12/25 22:21:27;;;;;;;13.38;8.82;;;7.90;64.70;;;;;;4958834;28;20031;-82
2021/12/25 22:23:53;;;;;;;16.35;9.77;;;7.80;65.20;;;;;;4957717;28;20023;-81
2021/12/25 22:26:19;;;;;;;14.77;9.30;;;7.70;65.60;;;;;;4958795;28;20031;-82
2021/12/25 22:28:45;;;;;;;17.08;9.63;;;7.70;65.90;;;;;;4958937;28;20063;-82
2021/12/25 22:31:11;;;;;;;17.33;9.80;;;7.70;65.90;;;;;;4975811;28;20038;-81
2021/12/25 22:33:38;;;;;;;14.43;9.35;;;8.10;65.00;;;;;;4958512;28;20027;-80
2021/12/25 22:36:05;;;;;;;14.50;9.10;;;8.30;63.80;;;;;;4975729;28;20088;-81
2021/12/25 22:38:31;;;;;;;16.42;10.05;;;8.30;64.30;;;;;;4958753;28;20041;-81
2021/12/25 22:40:56;;;;;;;18.55;9.32;;;8.30;63.70;;;;;;4959037;28;20019;-82
2021/12/25 22:43:23;;;;;;;15.77;9.38;;;8.20;64.20;;;;;;4958621;28;20038;-82
2021/12/25 22:45:50;;;;;;;16.58;8.70;;;8.20;64.30;;;;;;4974991;28;20027;-82
2021/12/25 22:48:16;;;;;;;14.10;9.02;;;8.30;64.50;;;;;;4975508;28;20411;-82
2021/12/25 22:50:43;;;;;;;15.65;9.60;;;8.20;64.10;;;;;;4975609;28;20046;-82
2021/12/25 22:53:11;;;;;;;16.75;10.15;;;7.90;64.40;;;;;;4958187;28;20542;-81
2021/12/25 22:55:37;;;;;;;14.93;9.13;;;7.80;64.90;;;;;;4958100;28;20030;-82
2021/12/25 22:58:04;;;;;;;14.98;9.73;;;7.70;65.10;;;;;;4975261;28;20038;-80
2021/12/25 23:00:47;;;;;;;16.08;10.00;;;7.50;65.60;;;;;;4958091;28;20090;-81
2021/12/25 23:03:13;;;;;;;18.23;10.82;;;7.50;66.10;;;;;;4974936;28;20432;-82
2021/12/25 23:05:42;;;;;;;20.15;10.85;;;7.80;65.60;;;;;;4975540;28;20097;-82
2021/12/25 23:08:17;;;;;;;15.98;9.65;;;8.20;64.40;;;;;;4975484;28;20022;-84
2021/12/25 23:10:49;;;;;;;16.77;10.13;;;8.40;63.60;;;;;;4957894;28;20115;-81
2021/12/25 23:13:17;;;;;;;17.52;10.77;;;8.00;63.90;;;;;;4957568;28;20122;-82
2021/12/25 23:15:43;;;;;;;15.90;9.70;;;7.60;64.80;;;;;;4957809;28;20031;-81
2021/12/25 23:18:11;;;;;;;15.27;9.57;;;7.10;66.20;;;;;;4974798;28;20447;-81
2021/12/25 23:20:38;;;;;;;16.17;10.25;;;6.90;67.00;;;;;;4957725;28;20061;-81
2021/12/25 23:23:04;;;;;;;16.38;10.10;;;6.90;67.00;;;;;;4974979;28;20090;-81
2021/12/25 23:25:30;;;;;;;13.43;8.57;;;7.00;67.60;;;;;;4974657;28;20023;-82
2021/12/25 23:27:56;;;;;;;12.05;7.60;;;6.80;66.50;;;;;;4957463;28;20031;-82
2021/12/25 23:30:22;;;;;;;12.77;8.07;;;6.80;67.30;;;;;;4974830;28;20023;-82
2021/12/25 23:32:48;;;;;;;12.95;8.48;;;7.20;66.30;;;;;;4973402;28;20094;-81
2021/12/25 23:35:14;;;;;;;14.40;8.60;;;7.70;64.40;;;;;;4974635;28;20416;-82
2021/12/25 23:37:41;;;;;;;13.63;8.65;;;7.80;64.30;;;;;;4974997;28;20484;-82
2021/12/25 23:40:11;;;;;;;15.10;9.60;;;7.90;63.70;;;;;;4974736;28;20383;-82
2021/12/25 23:42:42;;;;;;;13.53;8.50;;;8.10;63.80;;;;;;4974514;28;20035;-81
2021/12/25 23:45:19;;;;;;;13.65;8.07;;;8.30;62.80;;;;;;4281402;28;10000705;-82
2021/12/25 23:47:46;;;;;;;12.23;7.30;;;8.50;62.60;;;;;;4953649;29;20058;-82
2021/12/25 23:50:14;;;;;;;12.15;7.70;;;8.40;62.30;;;;;;4970114;28;20023;-82
2021/12/25 23:52:40;;;;;;;12.88;8.13;;;8.40;62.60;;;;;;4970049;28;20495;-82
2021/12/25 23:55:07;;;;;;;12.27;7.40;;;8.60;62.00;;;;;;4970048;28;20023;-82
2021/12/25 23:57:33;;;;;;;9.68;5.97;;;8.80;61.10;;;;;;4970158;28;20039;-82
2021/12/25 23:59:59;;;;;;;9.80;6.55;;;8.70;61.00;;;;;;4953401;29;20401;-83
